sensor_id;sensor_type;location;lat;lon;timestamp;P1;durP1;ratioP1;P2;durP2;ratioP2
15553;SDS011;7878;44.632;10.942;2023-06-26T00:00:03;14.55;;;6.78;;
15553;SDS011;7878;44.632;10.942;2023-06-26T00:02:30;8.48;;;5.95;;
15553;SDS011;7878;44.632;10.942;2023-06-26T00:04:58;7.57;;;6.10;;
15553;SDS011;7878;44.632;10.942;2023-06-26T00:07:27;9.20;;;5.97;;
15553;SDS011;7878;44.632;10.942;2023-06-26T00:09:53;7.07;;;6.38;;
15553;SDS011;7878;44.632;10.942;2023-06-26T00:12:19;12.20;;;6.70;;
15553;SDS011;7878;44.632;10.942;2023-06-26T00:14:45;8.88;;;6.53;;
15553;SDS011;7878;44.632;10.942;2023-06-26T00:17:11;8.45;;;6.15;;
15553;SDS011;7878;44.632;10.942;2023-06-26T00:19:37;8.13;;;6.20;;
15553;SDS011;7878;44.632;10.942;2023-06-26T00:22:02;7.93;;;6.53;;
15553;SDS011;7878;44.632;10.942;2023-06-26T00:24:28;6.47;;;5.57;;
15553;SDS011;7878;44.632;10.942;2023-06-26T00:26:54;8.90;;;5.93;;
15553;SDS011;7878;44.632;10.942;2023-06-26T00:29:19;6.60;;;6.00;;
15553;SDS011;7878;44.632;10.942;2023-06-26T00:31:45;6.35;;;5.75;;
15553;SDS011;7878;44.632;10.942;2023-06-26T00:34:11;7.20;;;6.05;;
15553;SDS011;7878;44.632;10.942;2023-06-26T00:36:36;7.47;;;6.45;;
15553;SDS011;7878;44.632;10.942;2023-06-26T00:39:02;10.00;;;7.03;;
15553;SDS011;7878;44.632;10.942;2023-06-26T00:41:28;8.35;;;6.60;;
15553;SDS011;7878;44.632;10.942;2023-06-26T00:43:54;7.20;;;6.50;;
15553;SDS011;7878;44.632;10.942;2023-06-26T00:46:20;7.07;;;6.35;;
15553;SDS011;7878;44.632;10.942;2023-06-26T00:48:46;9.27;;;6.70;;
15553;SDS011;7878;44.632;10.942;2023-06-26T00:51:14;7.10;;;6.40;;
15553;SDS011;7878;44.632;10.942;2023-06-26T00:53:40;8.93;;;6.90;;
15553;SDS011;7878;44.632;10.942;2023-06-26T00:56:06;10.10;;;7.13;;
15553;SDS011;7878;44.632;10.942;2023-06-26T00:58:33;11.20;;;6.65;;
15553;SDS011;7878;44.632;10.942;2023-06-26T01:00:59;8.18;;;5.90;;
15553;SDS011;7878;44.632;10.942;2023-06-26T01:03:25;7.05;;;6.07;;
15553;SDS011;7878;44.632;10.942;2023-06-26T01:05:51;7.70;;;5.85;;
15553;SDS011;7878;44.632;10.942;2023-06-26T01:08:18;6.85;;;5.47;;
15553;SDS011;7878;44.632;10.942;2023-06-26T01:10:45;7.00;;;6.28;;
15553;SDS011;7878;44.632;10.942;2023-06-26T01:13:12;6.32;;;5.57;;
15553;SDS011;7878;44.632;10.942;2023-06-26T01:15:39;6.10;;;5.50;;
15553;SDS011;7878;44.632;10.942;2023-06-26T01:18:05;6.72;;;5.60;;
15553;SDS011;7878;44.632;10.942;2023-06-26T01:20:35;7.75;;;5.57;;
15553;SDS011;7878;44.632;10.942;2023-06-26T01:28:09;7.10;;;5.70;;
15553;SDS011;7878;44.632;10.942;2023-06-26T01:30:39;7.53;;;5.93;;
15553;SDS011;7878;44.632;10.942;2023-06-26T01:33:07;7.63;;;6.05;;
15553;SDS011;7878;44.632;10.942;2023-06-26T01:35:34;7.97;;;5.57;;
15553;SDS011;7878;44.632;10.942;2023-06-26T01:40:38;7.35;;;6.00;;
15553;SDS011;7878;44.632;10.942;2023-06-26T01:43:05;8.77;;;6.20;;
15553;SDS011;7878;44.632;10.942;2023-06-26T01:45:33;8.35;;;5.78;;
15553;SDS011;7878;44.632;10.942;2023-06-26T01:47:59;9.85;;;6.32;;
15553;SDS011;7878;44.632;10.942;2023-06-26T01:50:29;8.02;;;5.93;;
15553;SDS011;7878;44.632;10.942;2023-06-26T01:53:06;9.50;;;6.20;;
15553;SDS011;7878;44.632;10.942;2023-06-26T01:58:06;6.97;;;5.80;;
15553;SDS011;7878;44.632;10.942;2023-06-26T02:00:33;7.57;;;5.85;;
15553;SDS011;7878;44.632;10.942;2023-06-26T02:03:00;9.85;;;6.43;;
15553;SDS011;7878;44.632;10.942;2023-06-26T02:05:26;8.45;;;6.63;;
15553;SDS011;7878;44.632;10.942;2023-06-26T02:07:52;8.45;;;6.03;;
15553;SDS011;7878;44.632;10.942;2023-06-26T02:10:18;9.60;;;7.13;;
15553;SDS011;7878;44.632;10.942;2023-06-26T02:12:43;10.40;;;7.50;;
15553;SDS011;7878;44.632;10.942;2023-06-26T02:15:09;11.57;;;7.47;;
15553;SDS011;7878;44.632;10.942;2023-06-26T02:17:35;7.53;;;6.72;;
15553;SDS011;7878;44.632;10.942;2023-06-26T02:20:00;10.50;;;7.60;;
15553;SDS011;7878;44.632;10.942;2023-06-26T02:22:26;12.20;;;7.93;;
15553;SDS011;7878;44.632;10.942;2023-06-26T02:24:53;11.35;;;8.55;;
15553;SDS011;7878;44.632;10.942;2023-06-26T02:27:19;10.10;;;8.75;;
15553;SDS011;7878;44.632;10.942;2023-06-26T02:29:45;10.23;;;8.52;;
15553;SDS011;7878;44.632;10.942;2023-06-26T02:32:10;12.85;;;9.57;;
15553;SDS011;7878;44.632;10.942;2023-06-26T02:34:36;9.63;;;8.38;;
15553;SDS011;7878;44.632;10.942;2023-06-26T02:37:02;15.65;;;8.52;;
15553;SDS011;7878;44.632;10.942;2023-06-26T02:39:28;12.32;;;8.68;;
15553;SDS011;7878;44.632;10.942;2023-06-26T02:41:53;10.52;;;8.07;;
15553;SDS011;7878;44.632;10.942;2023-06-26T02:44:19;12.95;;;8.35;;
15553;SDS011;7878;44.632;10.942;2023-06-26T02:46:46;16.92;;;8.65;;
15553;SDS011;7878;44.632;10.942;2023-06-26T02:49:11;11.63;;;8.30;;
15553;SDS011;7878;44.632;10.942;2023-06-26T02:51:37;12.60;;;8.80;;
15553;SDS011;7878;44.632;10.942;2023-06-26T02:54:03;9.88;;;8.05;;
15553;SDS011;7878;44.632;10.942;2023-06-26T02:56:29;10.40;;;8.05;;
15553;SDS011;7878;44.632;10.942;2023-06-26T02:58:57;13.32;;;8.48;;
15553;SDS011;7878;44.632;10.942;2023-06-26T03:01:23;9.45;;;8.30;;
15553;SDS011;7878;44.632;10.942;2023-06-26T03:03:49;10.88;;;8.35;;
15553;SDS011;7878;44.632;10.942;2023-06-26T03:06:15;13.25;;;8.43;;
15553;SDS011;7878;44.632;10.942;2023-06-26T03:08:41;9.15;;;8.05;;
15553;SDS011;7878;44.632;10.942;2023-06-26T03:11:07;10.00;;;8.50;;
15553;SDS011;7878;44.632;10.942;2023-06-26T03:13:34;11.43;;;8.18;;
15553;SDS011;7878;44.632;10.942;2023-06-26T03:16:00;8.95;;;8.15;;
15553;SDS011;7878;44.632;10.942;2023-06-26T03:18:26;9.40;;;8.40;;
15553;SDS011;7878;44.632;10.942;2023-06-26T03:20:52;8.13;;;7.28;;
15553;SDS011;7878;44.632;10.942;2023-06-26T03:23:21;9.90;;;7.55;;
15553;SDS011;7878;44.632;10.942;2023-06-26T03:25:48;9.75;;;8.30;;
15553;SDS011;7878;44.632;10.942;2023-06-26T03:28:14;11.68;;;7.85;;
15553;SDS011;7878;44.632;10.942;2023-06-26T03:30:40;12.07;;;8.10;;
15553;SDS011;7878;44.632;10.942;2023-06-26T03:33:06;9.50;;;7.20;;
15553;SDS011;7878;44.632;10.942;2023-06-26T03:35:31;11.98;;;8.18;;
15553;SDS011;7878;44.632;10.942;2023-06-26T03:37:57;11.10;;;7.38;;
15553;SDS011;7878;44.632;10.942;2023-06-26T03:40:23;9.05;;;8.15;;
15553;SDS011;7878;44.632;10.942;2023-06-26T03:42:49;10.20;;;7.40;;
15553;SDS011;7878;44.632;10.942;2023-06-26T03:45:15;12.02;;;7.82;;
15553;SDS011;7878;44.632;10.942;2023-06-26T03:47:41;12.73;;;7.90;;
15553;SDS011;7878;44.632;10.942;2023-06-26T03:50:06;9.80;;;7.88;;
15553;SDS011;7878;44.632;10.942;2023-06-26T03:52:32;10.68;;;6.95;;
15553;SDS011;7878;44.632;10.942;2023-06-26T03:54:58;12.18;;;7.65;;
15553;SDS011;7878;44.632;10.942;2023-06-26T03:57:24;10.73;;;7.55;;
15553;SDS011;7878;44.632;10.942;2023-06-26T03:59:51;9.07;;;7.55;;
15553;SDS011;7878;44.632;10.942;2023-06-26T04:02:17;11.15;;;7.55;;
15553;SDS011;7878;44.632;10.942;2023-06-26T04:04:42;10.00;;;7.75;;
15553;SDS011;7878;44.632;10.942;2023-06-26T04:07:08;11.27;;;7.65;;
15553;SDS011;7878;44.632;10.942;2023-06-26T04:09:34;10.80;;;7.50;;
15553;SDS011;7878;44.632;10.942;2023-06-26T04:12:00;10.85;;;7.68;;
15553;SDS011;7878;44.632;10.942;2023-06-26T04:14:25;9.70;;;7.45;;
15553;SDS011;7878;44.632;10.942;2023-06-26T04:16:51;9.52;;;7.40;;
15553;SDS011;7878;44.632;10.942;2023-06-26T04:19:17;11.43;;;7.30;;
15553;SDS011;7878;44.632;10.942;2023-06-26T04:21:43;11.25;;;6.85;;
15553;SDS011;7878;44.632;10.942;2023-06-26T04:24:09;8.18;;;6.60;;
15553;SDS011;7878;44.632;10.942;2023-06-26T04:26:34;9.38;;;7.15;;
15553;SDS011;7878;44.632;10.942;2023-06-26T04:29:00;10.73;;;6.60;;
15553;SDS011;7878;44.632;10.942;2023-06-26T04:31:26;8.23;;;6.80;;
15553;SDS011;7878;44.632;10.942;2023-06-26T04:33:52;9.95;;;6.90;;
15553;SDS011;7878;44.632;10.942;2023-06-26T04:36:20;9.40;;;7.00;;
15553;SDS011;7878;44.632;10.942;2023-06-26T04:38:46;10.32;;;7.13;;
15553;SDS011;7878;44.632;10.942;2023-06-26T04:41:13;11.93;;;6.15;;
15553;SDS011;7878;44.632;10.942;2023-06-26T04:43:39;8.30;;;6.20;;
15553;SDS011;7878;44.632;10.942;2023-06-26T04:46:05;12.27;;;6.28;;
15553;SDS011;7878;44.632;10.942;2023-06-26T04:48:31;10.05;;;6.45;;
15553;SDS011;7878;44.632;10.942;2023-06-26T04:50:57;6.20;;;5.45;;
15553;SDS011;7878;44.632;10.942;2023-06-26T04:53:24;8.65;;;5.65;;
15553;SDS011;7878;44.632;10.942;2023-06-26T04:55:53;7.80;;;6.50;;
15553;SDS011;7878;44.632;10.942;2023-06-26T04:58:19;7.38;;;6.03;;
15553;SDS011;7878;44.632;10.942;2023-06-26T05:00:45;7.22;;;5.97;;
15553;SDS011;7878;44.632;10.942;2023-06-26T05:03:11;6.97;;;5.95;;
15553;SDS011;7878;44.632;10.942;2023-06-26T05:05:38;11.50;;;6.38;;
15553;SDS011;7878;44.632;10.942;2023-06-26T05:08:13;10.00;;;7.22;;
15553;SDS011;7878;44.632;10.942;2023-06-26T05:10:40;7.97;;;6.88;;
15553;SDS011;7878;44.632;10.942;2023-06-26T05:13:06;8.43;;;7.63;;
15553;SDS011;7878;44.632;10.942;2023-06-26T05:15:31;10.30;;;7.63;;
15553;SDS011;7878;44.632;10.942;2023-06-26T05:17:57;13.10;;;7.85;;
15553;SDS011;7878;44.632;10.942;2023-06-26T05:20:23;17.65;;;8.55;;
15553;SDS011;7878;44.632;10.942;2023-06-26T05:22:49;15.75;;;9.00;;
15553;SDS011;7878;44.632;10.942;2023-06-26T05:25:15;10.07;;;8.30;;
15553;SDS011;7878;44.632;10.942;2023-06-26T05:27:43;14.82;;;8.20;;
15553;SDS011;7878;44.632;10.942;2023-06-26T05:30:08;10.00;;;7.88;;
15553;SDS011;7878;44.632;10.942;2023-06-26T05:32:35;9.35;;;7.00;;
15553;SDS011;7878;44.632;10.942;2023-06-26T05:35:02;10.10;;;7.20;;
15553;SDS011;7878;44.632;10.942;2023-06-26T05:37:29;11.90;;;6.82;;
15553;SDS011;7878;44.632;10.942;2023-06-26T05:39:56;10.25;;;7.57;;
15553;SDS011;7878;44.632;10.942;2023-06-26T05:42:22;14.02;;;7.90;;
15553;SDS011;7878;44.632;10.942;2023-06-26T05:44:48;9.85;;;7.03;;
15553;SDS011;7878;44.632;10.942;2023-06-26T05:47:13;8.13;;;7.13;;
15553;SDS011;7878;44.632;10.942;2023-06-26T05:49:39;12.07;;;7.40;;
15553;SDS011;7878;44.632;10.942;2023-06-26T05:52:05;10.20;;;7.13;;
15553;SDS011;7878;44.632;10.942;2023-06-26T05:54:31;11.82;;;8.05;;
15553;SDS011;7878;44.632;10.942;2023-06-26T05:56:57;12.88;;;7.25;;
15553;SDS011;7878;44.632;10.942;2023-06-26T05:59:26;9.20;;;6.95;;
15553;SDS011;7878;44.632;10.942;2023-06-26T06:01:53;14.25;;;8.50;;
15553;SDS011;7878;44.632;10.942;2023-06-26T06:04:18;12.63;;;7.68;;
15553;SDS011;7878;44.632;10.942;2023-06-26T06:06:44;13.13;;;6.57;;
15553;SDS011;7878;44.632;10.942;2023-06-26T06:09:10;11.85;;;6.65;;
15553;SDS011;7878;44.632;10.942;2023-06-26T06:11:35;13.48;;;6.43;;
15553;SDS011;7878;44.632;10.942;2023-06-26T06:14:02;11.68;;;7.22;;
15553;SDS011;7878;44.632;10.942;2023-06-26T06:16:28;10.57;;;6.90;;
15553;SDS011;7878;44.632;10.942;2023-06-26T06:18:54;12.18;;;6.57;;
15553;SDS011;7878;44.632;10.942;2023-06-26T06:21:20;13.70;;;7.57;;
15553;SDS011;7878;44.632;10.942;2023-06-26T06:23:46;9.98;;;7.05;;
15553;SDS011;7878;44.632;10.942;2023-06-26T06:26:11;19.52;;;8.65;;
15553;SDS011;7878;44.632;10.942;2023-06-26T06:28:38;7.63;;;6.35;;
15553;SDS011;7878;44.632;10.942;2023-06-26T06:31:04;10.85;;;6.82;;
15553;SDS011;7878;44.632;10.942;2023-06-26T06:33:30;10.45;;;6.82;;
15553;SDS011;7878;44.632;10.942;2023-06-26T06:35:55;11.10;;;7.10;;
15553;SDS011;7878;44.632;10.942;2023-06-26T06:38:21;11.75;;;6.45;;
15553;SDS011;7878;44.632;10.942;2023-06-26T06:40:47;12.73;;;7.65;;
15553;SDS011;7878;44.632;10.942;2023-06-26T06:43:13;10.95;;;7.07;;
15553;SDS011;7878;44.632;10.942;2023-06-26T06:45:39;7.65;;;6.85;;
15553;SDS011;7878;44.632;10.942;2023-06-26T06:48:05;11.10;;;7.13;;
15553;SDS011;7878;44.632;10.942;2023-06-26T06:50:31;9.25;;;6.85;;
15553;SDS011;7878;44.632;10.942;2023-06-26T06:52:56;7.15;;;6.45;;
15553;SDS011;7878;44.632;10.942;2023-06-26T06:55:22;8.98;;;6.47;;
15553;SDS011;7878;44.632;10.942;2023-06-26T06:57:48;9.65;;;6.43;;
15553;SDS011;7878;44.632;10.942;2023-06-26T07:00:15;9.57;;;6.50;;
15553;SDS011;7878;44.632;10.942;2023-06-26T07:02:44;10.63;;;6.93;;
15553;SDS011;7878;44.632;10.942;2023-06-26T07:05:11;13.32;;;6.32;;
15553;SDS011;7878;44.632;10.942;2023-06-26T07:07:37;9.43;;;6.05;;
15553;SDS011;7878;44.632;10.942;2023-06-26T07:10:13;8.93;;;6.10;;
15553;SDS011;7878;44.632;10.942;2023-06-26T07:12:39;7.22;;;6.53;;
15553;SDS011;7878;44.632;10.942;2023-06-26T07:15:05;10.70;;;6.43;;
15553;SDS011;7878;44.632;10.942;2023-06-26T07:17:32;8.70;;;6.63;;
15553;SDS011;7878;44.632;10.942;2023-06-26T07:19:59;9.85;;;6.30;;
15553;SDS011;7878;44.632;10.942;2023-06-26T07:22:25;16.40;;;6.32;;
15553;SDS011;7878;44.632;10.942;2023-06-26T07:24:51;9.05;;;6.18;;
15553;SDS011;7878;44.632;10.942;2023-06-26T07:27:17;6.93;;;6.22;;
15553;SDS011;7878;44.632;10.942;2023-06-26T07:29:44;8.25;;;6.82;;
15553;SDS011;7878;44.632;10.942;2023-06-26T07:32:10;6.78;;;5.93;;
15553;SDS011;7878;44.632;10.942;2023-06-26T07:34:35;7.55;;;6.78;;
15553;SDS011;7878;44.632;10.942;2023-06-26T07:37:01;10.20;;;6.57;;
15553;SDS011;7878;44.632;10.942;2023-06-26T07:39:27;9.63;;;6.47;;
15553;SDS011;7878;44.632;10.942;2023-06-26T07:41:53;9.65;;;6.63;;
15553;SDS011;7878;44.632;10.942;2023-06-26T07:44:18;9.90;;;6.95;;
15553;SDS011;7878;44.632;10.942;2023-06-26T07:46:44;7.03;;;6.30;;
15553;SDS011;7878;44.632;10.942;2023-06-26T07:49:10;11.95;;;6.95;;
15553;SDS011;7878;44.632;10.942;2023-06-26T07:51:36;10.40;;;6.15;;
15553;SDS011;7878;44.632;10.942;2023-06-26T07:54:02;9.95;;;6.13;;
15553;SDS011;7878;44.632;10.942;2023-06-26T07:56:28;9.98;;;6.38;;
15553;SDS011;7878;44.632;10.942;2023-06-26T07:58:54;7.63;;;6.82;;
15553;SDS011;7878;44.632;10.942;2023-06-26T08:01:19;8.13;;;6.20;;
15553;SDS011;7878;44.632;10.942;2023-06-26T08:03:45;8.35;;;7.18;;
15553;SDS011;7878;44.632;10.942;2023-06-26T08:06:11;9.90;;;7.70;;
15553;SDS011;7878;44.632;10.942;2023-06-26T08:08:36;6.85;;;6.25;;
15553;SDS011;7878;44.632;10.942;2023-06-26T08:11:02;11.20;;;6.95;;
15553;SDS011;7878;44.632;10.942;2023-06-26T08:13:28;11.35;;;7.10;;
15553;SDS011;7878;44.632;10.942;2023-06-26T08:15:53;9.75;;;6.50;;
15553;SDS011;7878;44.632;10.942;2023-06-26T08:18:19;12.50;;;6.95;;
15553;SDS011;7878;44.632;10.942;2023-06-26T08:20:45;8.43;;;7.60;;
15553;SDS011;7878;44.632;10.942;2023-06-26T08:23:11;7.63;;;6.80;;
15553;SDS011;7878;44.632;10.942;2023-06-26T08:25:37;15.80;;;6.97;;
15553;SDS011;7878;44.632;10.942;2023-06-26T08:28:03;12.43;;;6.97;;
15553;SDS011;7878;44.632;10.942;2023-06-26T08:30:29;12.93;;;6.40;;
15553;SDS011;7878;44.632;10.942;2023-06-26T08:32:55;8.15;;;6.47;;
15553;SDS011;7878;44.632;10.942;2023-06-26T08:35:20;7.93;;;6.15;;
15553;SDS011;7878;44.632;10.942;2023-06-26T08:37:46;6.25;;;5.65;;
15553;SDS011;7878;44.632;10.942;2023-06-26T08:40:12;13.15;;;5.90;;
15553;SDS011;7878;44.632;10.942;2023-06-26T08:42:41;7.00;;;6.32;;
15553;SDS011;7878;44.632;10.942;2023-06-26T08:45:07;10.45;;;6.47;;
15553;SDS011;7878;44.632;10.942;2023-06-26T08:47:33;10.50;;;6.15;;
15553;SDS011;7878;44.632;10.942;2023-06-26T08:50:07;8.20;;;5.72;;
15553;SDS011;7878;44.632;10.942;2023-06-26T08:52:36;6.78;;;6.07;;
15553;SDS011;7878;44.632;10.942;2023-06-26T08:55:09;7.57;;;6.18;;
15553;SDS011;7878;44.632;10.942;2023-06-26T08:57:37;19.98;;;6.70;;
15553;SDS011;7878;44.632;10.942;2023-06-26T09:00:04;7.45;;;6.45;;
15553;SDS011;7878;44.632;10.942;2023-06-26T09:02:30;7.93;;;7.22;;
15553;SDS011;7878;44.632;10.942;2023-06-26T09:04:56;9.15;;;6.30;;
15553;SDS011;7878;44.632;10.942;2023-06-26T09:07:22;7.07;;;6.22;;
15553;SDS011;7878;44.632;10.942;2023-06-26T09:09:48;9.07;;;6.35;;
15553;SDS011;7878;44.632;10.942;2023-06-26T09:12:13;7.35;;;5.78;;
15553;SDS011;7878;44.632;10.942;2023-06-26T09:14:39;12.75;;;6.75;;
15553;SDS011;7878;44.632;10.942;2023-06-26T09:17:06;8.40;;;6.22;;
15553;SDS011;7878;44.632;10.942;2023-06-26T09:19:31;12.38;;;7.18;;
15553;SDS011;7878;44.632;10.942;2023-06-26T09:21:57;7.32;;;6.38;;
15553;SDS011;7878;44.632;10.942;2023-06-26T09:24:23;9.18;;;7.32;;
15553;SDS011;7878;44.632;10.942;2023-06-26T09:26:50;7.38;;;6.68;;
15553;SDS011;7878;44.632;10.942;2023-06-26T09:29:17;9.50;;;6.07;;
15553;SDS011;7878;44.632;10.942;2023-06-26T09:31:44;8.88;;;7.03;;
15553;SDS011;7878;44.632;10.942;2023-06-26T09:34:10;7.90;;;5.78;;
15553;SDS011;7878;44.632;10.942;2023-06-26T09:36:35;7.15;;;5.35;;
15553;SDS011;7878;44.632;10.942;2023-06-26T09:39:05;6.57;;;5.72;;
15553;SDS011;7878;44.632;10.942;2023-06-26T09:41:35;7.35;;;5.82;;
15553;SDS011;7878;44.632;10.942;2023-06-26T09:44:04;12.63;;;5.80;;
15553;SDS011;7878;44.632;10.942;2023-06-26T09:46:31;8.02;;;5.72;;
15553;SDS011;7878;44.632;10.942;2023-06-26T09:49:03;6.68;;;6.03;;
15553;SDS011;7878;44.632;10.942;2023-06-26T09:51:34;8.40;;;5.95;;
15553;SDS011;7878;44.632;10.942;2023-06-26T09:54:01;7.28;;;6.35;;
15553;SDS011;7878;44.632;10.942;2023-06-26T09:56:27;6.43;;;5.72;;
15553;SDS011;7878;44.632;10.942;2023-06-26T09:58:57;6.30;;;5.70;;
15553;SDS011;7878;44.632;10.942;2023-06-26T10:01:25;6.57;;;5.95;;
15553;SDS011;7878;44.632;10.942;2023-06-26T10:03:51;11.02;;;6.20;;
15553;SDS011;7878;44.632;10.942;2023-06-26T10:06:24;11.15;;;5.82;;
15553;SDS011;7878;44.632;10.942;2023-06-26T10:08:58;7.63;;;6.47;;
15553;SDS011;7878;44.632;10.942;2023-06-26T10:11:27;6.63;;;5.60;;
15553;SDS011;7878;44.632;10.942;2023-06-26T10:14:12;6.28;;;5.70;;
15553;SDS011;7878;44.632;10.942;2023-06-26T10:16:39;7.57;;;6.32;;
15553;SDS011;7878;44.632;10.942;2023-06-26T10:19:08;7.45;;;5.50;;
15553;SDS011;7878;44.632;10.942;2023-06-26T10:21:37;6.45;;;5.85;;
15553;SDS011;7878;44.632;10.942;2023-06-26T10:24:05;8.02;;;6.20;;
15553;SDS011;7878;44.632;10.942;2023-06-26T10:26:31;6.03;;;5.53;;
15553;SDS011;7878;44.632;10.942;2023-06-26T10:29:01;9.15;;;6.50;;
15553;SDS011;7878;44.632;10.942;2023-06-26T10:31:29;6.60;;;5.97;;
15553;SDS011;7878;44.632;10.942;2023-06-26T10:33:55;6.07;;;5.47;;
15553;SDS011;7878;44.632;10.942;2023-06-26T10:36:27;8.73;;;6.03;;
15553;SDS011;7878;44.632;10.942;2023-06-26T10:38:55;6.35;;;5.82;;
15553;SDS011;7878;44.632;10.942;2023-06-26T10:41:24;7.80;;;5.53;;
15553;SDS011;7878;44.632;10.942;2023-06-26T10:44:15;7.50;;;5.95;;
15553;SDS011;7878;44.632;10.942;2023-06-26T10:46:48;6.82;;;5.95;;
15553;SDS011;7878;44.632;10.942;2023-06-26T10:49:21;6.88;;;6.18;;
15553;SDS011;7878;44.632;10.942;2023-06-26T10:51:56;7.22;;;6.18;;
15553;SDS011;7878;44.632;10.942;2023-06-26T10:54:28;6.15;;;5.55;;
15553;SDS011;7878;44.632;10.942;2023-06-26T10:56:56;6.38;;;5.88;;
15553;SDS011;7878;44.632;10.942;2023-06-26T10:59:23;8.60;;;5.45;;
15553;SDS011;7878;44.632;10.942;2023-06-26T11:01:57;6.82;;;5.78;;
15553;SDS011;7878;44.632;10.942;2023-06-26T11:04:38;10.18;;;5.97;;
15553;SDS011;7878;44.632;10.942;2023-06-26T11:07:25;6.13;;;5.63;;
15553;SDS011;7878;44.632;10.942;2023-06-26T11:15:14;6.07;;;5.47;;
15553;SDS011;7878;44.632;10.942;2023-06-26T11:17:41;7.80;;;6.00;;
15553;SDS011;7878;44.632;10.942;2023-06-26T11:20:09;7.60;;;6.10;;
15553;SDS011;7878;44.632;10.942;2023-06-26T11:22:37;6.22;;;5.72;;
15553;SDS011;7878;44.632;10.942;2023-06-26T11:25:07;8.38;;;5.68;;
15553;SDS011;7878;44.632;10.942;2023-06-26T11:27:40;7.22;;;5.65;;
15553;SDS011;7878;44.632;10.942;2023-06-26T11:30:10;7.53;;;5.50;;
15553;SDS011;7878;44.632;10.942;2023-06-26T11:32:47;12.38;;;6.15;;
15553;SDS011;7878;44.632;10.942;2023-06-26T11:35:13;8.45;;;6.40;;
15553;SDS011;7878;44.632;10.942;2023-06-26T11:37:46;6.55;;;6.05;;
15553;SDS011;7878;44.632;10.942;2023-06-26T11:40:18;6.20;;;5.40;;
15553;SDS011;7878;44.632;10.942;2023-06-26T11:42:44;6.53;;;5.97;;
15553;SDS011;7878;44.632;10.942;2023-06-26T11:45:10;7.30;;;5.65;;
15553;SDS011;7878;44.632;10.942;2023-06-26T11:47:37;6.60;;;6.00;;
15553;SDS011;7878;44.632;10.942;2023-06-26T11:50:04;5.97;;;5.40;;
15553;SDS011;7878;44.632;10.942;2023-06-26T11:52:32;6.45;;;5.40;;
15553;SDS011;7878;44.632;10.942;2023-06-26T11:54:58;6.28;;;5.68;;
15553;SDS011;7878;44.632;10.942;2023-06-26T11:57:23;7.40;;;5.78;;
15553;SDS011;7878;44.632;10.942;2023-06-26T11:59:49;6.05;;;5.55;;
15553;SDS011;7878;44.632;10.942;2023-06-26T12:02:17;5.70;;;5.20;;
15553;SDS011;7878;44.632;10.942;2023-06-26T12:04:43;11.45;;;5.18;;
15553;SDS011;7878;44.632;10.942;2023-06-26T12:07:10;6.63;;;5.72;;
15553;SDS011;7878;44.632;10.942;2023-06-26T12:09:44;9.15;;;5.40;;
15553;SDS011;7878;44.632;10.942;2023-06-26T12:12:12;6.10;;;5.50;;
15553;SDS011;7878;44.632;10.942;2023-06-26T12:14:41;6.18;;;5.47;;
15553;SDS011;7878;44.632;10.942;2023-06-26T12:17:10;6.28;;;5.68;;
15553;SDS011;7878;44.632;10.942;2023-06-26T12:19:38;6.55;;;5.57;;
15553;SDS011;7878;44.632;10.942;2023-06-26T12:22:14;6.20;;;5.60;;
15553;SDS011;7878;44.632;10.942;2023-06-26T12:24:42;7.20;;;5.00;;
15553;SDS011;7878;44.632;10.942;2023-06-26T12:27:09;7.88;;;5.43;;
15553;SDS011;7878;44.632;10.942;2023-06-26T12:29:36;6.45;;;5.75;;
15553;SDS011;7878;44.632;10.942;2023-06-26T12:32:02;7.35;;;5.65;;
15553;SDS011;7878;44.632;10.942;2023-06-26T12:34:30;7.30;;;5.97;;
15553;SDS011;7878;44.632;10.942;2023-06-26T12:37:01;6.75;;;5.60;;
15553;SDS011;7878;44.632;10.942;2023-06-26T12:39:44;6.45;;;5.68;;
15553;SDS011;7878;44.632;10.942;2023-06-26T12:42:12;6.07;;;5.30;;
15553;SDS011;7878;44.632;10.942;2023-06-26T12:44:45;7.85;;;5.53;;
15553;SDS011;7878;44.632;10.942;2023-06-26T12:47:12;6.30;;;5.70;;
15553;SDS011;7878;44.632;10.942;2023-06-26T12:49:40;7.00;;;5.25;;
15553;SDS011;7878;44.632;10.942;2023-06-26T12:52:13;7.18;;;5.45;;
15553;SDS011;7878;44.632;10.942;2023-06-26T12:54:40;6.90;;;5.38;;
15553;SDS011;7878;44.632;10.942;2023-06-26T12:57:07;9.02;;;5.93;;
15553;SDS011;7878;44.632;10.942;2023-06-26T12:59:33;7.57;;;5.75;;
15553;SDS011;7878;44.632;10.942;2023-06-26T13:02:01;7.38;;;5.68;;
15553;SDS011;7878;44.632;10.942;2023-06-26T13:04:27;6.53;;;5.93;;
15553;SDS011;7878;44.632;10.942;2023-06-26T13:06:53;6.43;;;5.78;;
15553;SDS011;7878;44.632;10.942;2023-06-26T13:09:20;6.95;;;5.30;;
15553;SDS011;7878;44.632;10.942;2023-06-26T13:11:46;5.20;;;4.80;;
15553;SDS011;7878;44.632;10.942;2023-06-26T13:14:12;6.18;;;5.57;;
15553;SDS011;7878;44.632;10.942;2023-06-26T13:16:38;14.57;;;6.28;;
15553;SDS011;7878;44.632;10.942;2023-06-26T13:19:05;7.55;;;5.43;;
15553;SDS011;7878;44.632;10.942;2023-06-26T13:21:30;6.90;;;5.75;;
15553;SDS011;7878;44.632;10.942;2023-06-26T13:23:56;6.82;;;5.50;;
15553;SDS011;7878;44.632;10.942;2023-06-26T13:26:22;6.30;;;5.70;;
15553;SDS011;7878;44.632;10.942;2023-06-26T13:28:50;5.97;;;5.47;;
15553;SDS011;7878;44.632;10.942;2023-06-26T13:31:16;7.65;;;5.45;;
15553;SDS011;7878;44.632;10.942;2023-06-26T13:33:41;5.40;;;4.90;;
15553;SDS011;7878;44.632;10.942;2023-06-26T13:36:07;7.68;;;5.38;;
15553;SDS011;7878;44.632;10.942;2023-06-26T13:38:33;21.17;;;6.25;;
15553;SDS011;7878;44.632;10.942;2023-06-26T13:40:59;14.85;;;6.07;;
15553;SDS011;7878;44.632;10.942;2023-06-26T13:43:25;6.38;;;5.63;;
15553;SDS011;7878;44.632;10.942;2023-06-26T13:45:52;6.20;;;5.47;;
15553;SDS011;7878;44.632;10.942;2023-06-26T13:48:18;5.70;;;5.20;;
15553;SDS011;7878;44.632;10.942;2023-06-26T13:50:45;5.63;;;5.00;;
15553;SDS011;7878;44.632;10.942;2023-06-26T13:53:11;7.93;;;5.75;;
15553;SDS011;7878;44.632;10.942;2023-06-26T13:55:37;6.95;;;6.03;;
15553;SDS011;7878;44.632;10.942;2023-06-26T13:58:04;6.35;;;5.85;;
15553;SDS011;7878;44.632;10.942;2023-06-26T14:00:32;7.60;;;4.95;;
15553;SDS011;7878;44.632;10.942;2023-06-26T14:02:59;7.22;;;5.70;;
15553;SDS011;7878;44.632;10.942;2023-06-26T14:05:28;6.10;;;5.53;;
15553;SDS011;7878;44.632;10.942;2023-06-26T14:07:55;12.55;;;6.18;;
15553;SDS011;7878;44.632;10.942;2023-06-26T14:10:21;6.57;;;5.85;;
15553;SDS011;7878;44.632;10.942;2023-06-26T14:12:47;6.10;;;5.50;;
15553;SDS011;7878;44.632;10.942;2023-06-26T14:15:13;9.43;;;5.72;;
15553;SDS011;7878;44.632;10.942;2023-06-26T14:17:38;6.25;;;5.65;;
15553;SDS011;7878;44.632;10.942;2023-06-26T14:20:07;7.68;;;5.40;;
15553;SDS011;7878;44.632;10.942;2023-06-26T14:22:35;6.30;;;5.75;;
15553;SDS011;7878;44.632;10.942;2023-06-26T14:25:02;5.85;;;5.32;;
15553;SDS011;7878;44.632;10.942;2023-06-26T14:27:28;9.30;;;5.50;;
15553;SDS011;7878;44.632;10.942;2023-06-26T14:29:53;7.80;;;5.15;;
15553;SDS011;7878;44.632;10.942;2023-06-26T14:32:19;7.07;;;5.28;;
15553;SDS011;7878;44.632;10.942;2023-06-26T14:34:45;9.65;;;6.20;;
15553;SDS011;7878;44.632;10.942;2023-06-26T14:37:10;8.13;;;5.72;;
15553;SDS011;7878;44.632;10.942;2023-06-26T14:39:36;6.40;;;5.80;;
15553;SDS011;7878;44.632;10.942;2023-06-26T14:42:03;5.90;;;5.28;;
15553;SDS011;7878;44.632;10.942;2023-06-26T14:44:30;7.13;;;5.57;;
15553;SDS011;7878;44.632;10.942;2023-06-26T14:46:55;6.50;;;5.63;;
15553;SDS011;7878;44.632;10.942;2023-06-26T14:49:21;6.05;;;5.47;;
15553;SDS011;7878;44.632;10.942;2023-06-26T14:51:46;6.15;;;5.25;;
15553;SDS011;7878;44.632;10.942;2023-06-26T14:54:12;6.72;;;5.75;;
15553;SDS011;7878;44.632;10.942;2023-06-26T14:56:38;7.57;;;6.30;;